createdAt,value
2022-09-01T00:00:30.006Z,20.00
2022-09-01T00:02:59.913Z,17.03
2022-09-01T00:05:28.274Z,21.40
2022-09-01T00:07:57.662Z,18.80
2022-09-01T00:10:26.420Z,16.10
2022-09-01T00:12:54.529Z,20.90
2022-09-01T00:15:23.029Z,18.53
2022-09-01T00:17:51.124Z,19.00
2022-09-01T00:20:20.708Z,16.70
2022-09-01T00:22:49.640Z,18.10
2022-09-01T00:25:20.838Z,16.33
2022-09-01T00:27:49.640Z,18.27
2022-09-01T00:30:18.446Z,18.57
2022-09-01T00:32:46.985Z,21.20
2022-09-01T00:35:16.089Z,18.23
2022-09-01T00:37:44.245Z,20.13
2022-09-01T00:40:15.638Z,18.03
2022-09-01T00:42:46.216Z,22.60
2022-09-01T00:45:14.493Z,21.43
2022-09-01T00:47:43.842Z,21.00
2022-09-01T00:50:16.171Z,20.97
2022-09-01T00:52:49.187Z,17.97
2022-09-01T00:55:20.334Z,20.20
2022-09-01T00:57:50.290Z,21.10
2022-09-01T01:00:21.588Z,19.40
2022-09-01T01:02:56.217Z,22.00
2022-09-01T01:05:28.041Z,18.70
2022-09-01T01:07:57.018Z,18.47
2022-09-01T01:10:26.784Z,16.87
2022-09-01T01:12:56.292Z,17.10
2022-09-01T01:15:24.337Z,17.13
2022-09-01T01:17:52.428Z,15.03
2022-09-01T01:20:40.503Z,17.77
2022-09-01T01:23:19.598Z,16.17
2022-09-01T01:25:51.822Z,19.60
2022-09-01T01:28:22.445Z,16.80
2022-09-01T01:30:55.714Z,22.23
2022-09-01T01:33:26.717Z,18.20
2022-09-01T01:35:57.688Z,23.53
2022-09-01T01:38:28.270Z,18.77
2022-09-01T01:40:59.024Z,20.53
2022-09-01T01:43:29.031Z,20.87
2022-09-01T01:46:02.629Z,20.33
2022-09-01T01:48:37.274Z,20.50
2022-09-01T01:51:06.488Z,20.37
2022-09-01T01:53:35.929Z,22.00
2022-09-01T01:56:06.310Z,23.23
2022-09-01T01:58:37.043Z,23.10
2022-09-01T02:01:11.926Z,27.47
2022-09-01T02:03:40.794Z,23.03
2022-09-01T02:06:11.932Z,22.63
2022-09-01T02:08:42.095Z,26.77
2022-09-01T02:11:13.200Z,25.47
2022-09-01T02:13:41.476Z,24.53
2022-09-01T02:16:13.422Z,26.30
2022-09-01T02:18:48.128Z,24.83
2022-09-01T02:21:20.485Z,27.77
2022-09-01T02:23:50.275Z,23.80
2022-09-01T02:26:25.119Z,24.60
2022-09-01T02:28:55.937Z,26.20
2022-09-01T02:31:29.002Z,24.47
2022-09-01T02:34:01.230Z,26.10
2022-09-01T02:36:32.754Z,21.87
2022-09-01T02:39:01.267Z,30.13
2022-09-01T02:41:32.353Z,25.47
2022-09-01T02:44:02.550Z,26.37
2022-09-01T02:46:31.727Z,24.27
2022-09-01T02:49:01.624Z,29.17
2022-09-01T02:51:29.744Z,22.63
2022-09-01T02:53:58.600Z,26.13
2022-09-01T02:56:27.663Z,26.77
2022-09-01T02:58:57.893Z,26.53
2022-09-01T03:01:30.247Z,25.80
2022-09-01T03:04:01.956Z,26.07
2022-09-01T03:06:34.445Z,24.00
2022-09-01T03:09:03.759Z,25.40
2022-09-01T03:11:34.098Z,27.87
2022-09-01T03:14:03.685Z,26.00
2022-09-01T03:16:32.208Z,28.43
2022-09-01T03:19:03.360Z,25.10
2022-09-01T03:21:32.951Z,24.20
2022-09-01T03:24:02.254Z,30.07
2022-09-01T03:26:32.342Z,25.97
2022-09-01T03:29:00.435Z,26.53
2022-09-01T03:31:31.251Z,24.93
2022-09-01T03:34:03.407Z,23.70
2022-09-01T03:36:35.828Z,25.17
2022-09-01T03:39:04.266Z,22.90
2022-09-01T03:41:33.899Z,24.70
2022-09-01T03:44:02.066Z,20.93
2022-09-01T03:46:37.113Z,21.30
2022-09-01T03:49:08.129Z,22.13
2022-09-01T03:51:39.449Z,25.97
2022-09-01T03:54:09.350Z,22.90
2022-09-01T03:56:41.708Z,23.53
2022-09-01T03:59:17.075Z,26.43
2022-09-01T04:01:48.012Z,24.87
2022-09-01T04:04:17.088Z,25.17
2022-09-01T04:06:47.794Z,24.53
2022-09-01T04:09:16.304Z,22.37
2022-09-01T04:11:47.110Z,21.90
2022-09-01T04:14:17.082Z,22.53
2022-09-01T04:17:05.403Z,23.33
2022-09-01T04:19:38.582Z,22.60
2022-09-01T04:22:07.882Z,22.50
2022-09-01T04:24:46.675Z,21.37
2022-09-01T04:27:18.171Z,20.70
2022-09-01T04:29:48.548Z,23.30
2022-09-01T04:32:21.388Z,20.10
2022-09-01T04:34:53.266Z,23.60
2022-09-01T04:37:23.666Z,20.17
2022-09-01T04:39:57.513Z,22.40
2022-09-01T04:42:29.250Z,23.37
2022-09-01T04:45:03.120Z,28.77
2022-09-01T04:47:42.281Z,22.93
2022-09-01T04:50:17.596Z,23.40
2022-09-01T04:53:07.320Z,26.00
2022-09-01T04:55:50.235Z,26.53
2022-09-01T04:58:22.280Z,24.47
2022-09-01T05:00:53.117Z,27.93
2022-09-01T05:03:24.944Z,30.20
2022-09-01T05:06:01.259Z,28.00
2022-09-01T05:08:32.756Z,24.33
2022-09-01T05:11:07.587Z,29.40
2022-09-01T05:13:41.857Z,23.07
2022-09-01T05:16:13.217Z,25.97
2022-09-01T05:18:47.606Z,24.60
2022-09-01T05:21:20.019Z,21.77
2022-09-01T05:23:52.018Z,21.40
2022-09-01T05:26:23.954Z,23.40
2022-09-01T05:28:55.104Z,17.57
2022-09-01T05:31:24.998Z,20.00
2022-09-01T05:33:55.631Z,19.20
2022-09-01T05:36:25.180Z,18.27
2022-09-01T05:38:57.115Z,19.10
2022-09-01T05:41:26.377Z,20.50
2022-09-01T05:44:00.060Z,21.70
2022-09-01T05:46:30.163Z,20.17
2022-09-01T05:49:01.318Z,19.40
2022-09-01T05:51:44.501Z,22.93
2022-09-01T05:54:15.257Z,21.93
2022-09-01T05:56:44.864Z,21.10
2022-09-01T05:59:25.832Z,27.63
2022-09-01T06:02:00.553Z,23.00
2022-09-01T06:04:31.133Z,22.93
2022-09-01T06:07:10.234Z,27.90
2022-09-01T06:09:45.280Z,24.87
2022-09-01T06:12:18.959Z,25.00
2022-09-01T06:14:49.185Z,24.07
2022-09-01T06:17:19.634Z,26.10
2022-09-01T06:19:49.614Z,27.53
2022-09-01T06:22:17.755Z,23.83
2022-09-01T06:24:49.657Z,25.10
2022-09-01T06:27:22.698Z,27.00
2022-09-01T06:29:53.726Z,28.07
2022-09-01T06:32:25.888Z,24.17
2022-09-01T06:34:59.141Z,22.67
2022-09-01T06:37:28.874Z,22.30
2022-09-01T06:40:03.534Z,23.57
2022-09-01T06:42:35.320Z,20.93
2022-09-01T06:45:03.740Z,25.07
2022-09-01T06:47:32.838Z,22.50
2022-09-01T06:50:03.695Z,24.67
2022-09-01T06:53:31.950Z,25.90
2022-09-01T06:55:20.999Z,23.57
2022-09-01T06:58:09.519Z,22.30
2022-09-01T07:00:44.077Z,18.67
2022-09-01T07:03:15.215Z,21.17
2022-09-01T07:06:01.355Z,22.57
2022-09-01T07:16:30.244Z,16.77
2022-09-01T07:17:26.287Z,18.03
2022-09-01T07:19:56.075Z,18.33
2022-09-01T07:25:16.807Z,21.40
2022-09-01T07:28:09.032Z,18.40
2022-09-01T07:30:42.874Z,18.37
2022-09-01T07:45:25.577Z,10.63
2022-09-01T07:47:55.884Z,10.57
2022-09-01T07:50:40.188Z,9.30
2022-09-01T07:53:18.453Z,12.50
2022-09-01T07:55:51.207Z,10.53
2022-09-01T07:58:22.123Z,9.17
2022-09-01T08:00:56.218Z,9.20
2022-09-01T08:03:26.746Z,9.93
2022-09-01T08:06:00.764Z,11.03
2022-09-01T08:08:29.632Z,8.77
2022-09-01T08:11:07.864Z,9.53
2022-09-01T08:13:41.622Z,11.97
2022-09-01T08:16:18.983Z,10.83
2022-09-01T08:18:49.767Z,9.57
2022-09-01T08:21:41.556Z,9.73
2022-09-01T08:24:26.380Z,7.90
2022-09-01T08:26:56.018Z,11.90
2022-09-01T08:29:24.373Z,7.77
2022-09-01T08:31:54.437Z,8.20
2022-09-01T08:34:22.678Z,12.50
2022-09-01T08:36:51.168Z,10.37
2022-09-01T08:39:21.284Z,11.40
2022-09-01T08:41:59.097Z,11.67
2022-09-01T08:44:37.999Z,9.50
2022-09-01T08:47:13.744Z,11.70
2022-09-01T08:49:47.389Z,9.53
2022-09-01T08:52:30.504Z,13.70
2022-09-01T08:55:05.529Z,8.90
2022-09-01T08:57:36.060Z,11.87
2022-09-01T09:00:23.394Z,12.07
2022-09-01T09:03:08.789Z,9.17
2022-09-01T09:05:50.900Z,8.60
2022-09-01T09:08:44.960Z,10.27
2022-09-01T09:11:32.864Z,10.80
2022-09-01T09:14:07.038Z,11.97
2022-09-01T09:16:40.867Z,9.93
2022-09-01T09:19:12.349Z,11.97
2022-09-01T09:21:42.616Z,8.40
2022-09-01T09:24:19.321Z,10.10
2022-09-01T09:26:50.791Z,8.50
2022-09-01T09:29:20.617Z,13.40
2022-09-01T09:32:02.276Z,12.97
2022-09-01T09:34:33.617Z,9.10
2022-09-01T09:37:25.066Z,8.07
2022-09-01T09:40:15.112Z,8.77
2022-09-01T09:43:01.644Z,10.07
2022-09-01T09:45:33.962Z,5.80
2022-09-01T09:48:08.054Z,6.27
2022-09-01T09:50:43.251Z,4.83
2022-09-01T09:53:16.329Z,6.13
2022-09-01T09:55:58.314Z,5.63
2022-09-01T09:58:29.900Z,5.30
2022-09-01T10:01:03.997Z,8.60
2022-09-01T10:03:42.362Z,6.03
2022-09-01T10:06:13.406Z,7.40
2022-09-01T10:08:48.223Z,5.90
2022-09-01T10:11:33.508Z,6.27
2022-09-01T10:14:08.725Z,6.13
2022-09-01T10:16:43.108Z,3.53
2022-09-01T10:19:16.370Z,5.40
2022-09-01T10:21:46.953Z,6.40
2022-09-01T10:24:22.316Z,6.07
2022-09-01T10:26:58.613Z,5.10
2022-09-01T10:29:35.547Z,5.77
2022-09-01T10:32:35.045Z,7.27
2022-09-01T10:35:09.251Z,5.43
2022-09-01T10:37:38.649Z,6.70
2022-09-01T10:40:30.158Z,6.87
2022-09-01T10:43:05.597Z,4.07
2022-09-01T10:45:38.199Z,4.67
2022-09-01T10:48:33.672Z,5.70
2022-09-01T10:51:50.583Z,5.13
2022-09-01T10:55:01.363Z,4.63
2022-09-01T10:57:46.299Z,5.17
2022-09-01T11:03:51.954Z,5.33
2022-09-01T11:07:13.354Z,4.70
2022-09-01T11:09:43.631Z,4.70
2022-09-01T11:12:31.879Z,4.67
2022-09-01T11:15:03.105Z,5.37
2022-09-01T11:17:33.712Z,4.13
2022-09-01T11:20:08.783Z,4.00
2022-09-01T11:22:40.322Z,5.23
2022-09-01T11:25:41.290Z,10.60
2022-09-01T11:28:38.584Z,4.00
2022-09-01T11:31:26.377Z,3.43
2022-09-01T11:34:18.073Z,3.90
2022-09-01T11:37:13.395Z,3.83
2022-09-01T11:39:47.797Z,4.07
2022-09-01T11:42:20.414Z,4.07
2022-09-01T11:44:57.727Z,4.70
2022-09-01T11:47:29.374Z,2.97
2022-09-01T11:50:00.936Z,3.47
2022-09-01T11:52:32.485Z,3.77
2022-09-01T11:55:01.073Z,2.97
2022-09-01T11:57:32.155Z,3.40
2022-09-01T12:00:06.324Z,4.17
2022-09-01T12:02:45.757Z,3.03
2022-09-01T12:05:27.957Z,6.30
2022-09-01T12:07:57.037Z,3.30
2022-09-01T12:10:33.137Z,2.97
2022-09-01T12:13:02.599Z,3.23
2022-09-01T12:15:35.007Z,3.63
2022-09-01T12:18:20.980Z,3.43
2022-09-01T12:20:51.254Z,2.93
2022-09-01T12:23:26.666Z,8.40
2022-09-01T12:25:57.372Z,3.53
2022-09-01T12:28:30.419Z,3.53
2022-09-01T12:31:02.926Z,3.47
2022-09-01T12:33:36.732Z,2.70
2022-09-01T12:36:16.700Z,4.00
2022-09-01T12:38:44.824Z,3.80
2022-09-01T12:41:25.592Z,5.43
2022-09-01T12:43:54.686Z,3.73
2022-09-01T12:46:44.842Z,4.23
2022-09-01T12:49:20.726Z,4.13
2022-09-01T12:51:48.962Z,6.00
2022-09-01T12:54:17.230Z,3.93
2022-09-01T12:56:51.279Z,5.40
2022-09-01T12:59:31.987Z,6.97
2022-09-01T13:02:35.152Z,3.43
2022-09-01T13:05:30.671Z,4.77
2022-09-01T13:08:02.838Z,2.73
2022-09-01T13:10:34.421Z,3.00
2022-09-01T13:13:03.039Z,4.37
2022-09-01T13:15:32.219Z,5.20
2022-09-01T13:18:01.697Z,3.57
2022-09-01T13:20:30.108Z,4.57
2022-09-01T13:22:59.319Z,3.10
2022-09-01T13:25:27.532Z,4.23
2022-09-01T13:27:55.866Z,3.47
2022-09-01T13:30:28.427Z,3.60
2022-09-01T13:35:47.537Z,3.00
2022-09-01T13:38:16.920Z,5.10
2022-09-01T13:40:46.902Z,5.53
2022-09-01T13:43:15.680Z,3.47
2022-09-01T13:45:45.166Z,4.47
2022-09-01T13:48:15.906Z,5.17
2022-09-01T13:53:35.100Z,6.83
2022-09-01T13:56:03.514Z,5.67
2022-09-01T13:58:31.751Z,4.03
2022-09-01T14:01:00.233Z,2.87
2022-09-01T14:03:29.718Z,2.50
2022-09-01T14:05:57.826Z,4.03
2022-09-01T14:08:26.217Z,3.40
2022-09-01T14:10:55.774Z,2.60
2022-09-01T14:13:26.014Z,3.10
2022-09-01T14:15:55.337Z,3.67
2022-09-01T14:18:36.672Z,3.03
2022-09-01T14:21:04.999Z,5.77
2022-09-01T14:23:33.117Z,4.07
2022-09-01T14:26:02.749Z,4.30
2022-09-01T14:28:30.907Z,6.17
2022-09-01T14:33:27.397Z,4.97
2022-09-01T14:35:55.637Z,10.03
2022-09-01T14:38:23.790Z,5.90
2022-09-01T14:40:52.621Z,4.60
2022-09-01T14:43:23.027Z,10.93
2022-09-01T14:45:51.928Z,5.17
2022-09-01T14:48:21.584Z,6.20
2022-09-01T14:50:51.046Z,3.50
2022-09-01T14:53:19.610Z,4.23
2022-09-01T14:55:48.927Z,3.87
2022-09-01T14:58:18.629Z,4.57
2022-09-01T15:00:48.295Z,4.63
2022-09-01T15:03:19.337Z,3.10
2022-09-01T15:05:51.203Z,3.03
2022-09-01T15:08:19.699Z,5.60
2022-09-01T15:10:48.227Z,3.67
2022-09-01T15:13:16.353Z,3.10
2022-09-01T15:15:44.969Z,3.13
2022-09-01T15:18:14.438Z,5.37
2022-09-01T15:20:51.029Z,4.27
2022-09-01T15:23:21.417Z,5.60
2022-09-01T15:25:52.020Z,2.80
2022-09-01T15:28:20.712Z,3.97
2022-09-01T15:30:48.999Z,3.27
2022-09-01T15:33:19.169Z,3.33
2022-09-01T15:35:47.759Z,3.30
2022-09-01T15:38:17.840Z,4.23
2022-09-01T15:40:57.128Z,3.73
2022-09-01T15:43:27.170Z,4.43
2022-09-01T15:45:55.583Z,3.77
2022-09-01T15:48:25.831Z,2.60
2022-09-01T15:50:54.047Z,4.13
2022-09-01T15:53:22.307Z,4.77
2022-09-01T15:55:50.676Z,2.23
2022-09-01T15:58:20.226Z,2.83
2022-09-01T16:00:48.226Z,2.50
2022-09-01T16:03:16.906Z,3.27
2022-09-01T16:05:46.399Z,3.13
2022-09-01T16:08:14.583Z,3.53
2022-09-01T16:10:43.354Z,3.13
2022-09-01T16:13:13.184Z,5.63
2022-09-01T16:15:47.870Z,2.90
2022-09-01T16:18:32.485Z,4.20
2022-09-01T16:21:09.334Z,3.47
2022-09-01T16:23:44.142Z,3.37
2022-09-01T16:26:12.887Z,4.40
2022-09-01T16:28:46.090Z,3.40
2022-09-01T16:31:16.403Z,3.17
2022-09-01T16:33:49.268Z,4.70
2022-09-01T16:36:34.751Z,3.63
2022-09-01T16:39:10.548Z,3.43
2022-09-01T16:41:48.614Z,3.47
2022-09-01T16:44:27.558Z,3.00
2022-09-01T16:47:07.103Z,3.93
2022-09-01T16:49:43.862Z,3.20
2022-09-01T16:52:23.143Z,4.17
2022-09-01T16:55:05.367Z,3.73
2022-09-01T16:57:45.561Z,2.87
2022-09-01T17:00:16.768Z,6.73
2022-09-01T17:02:52.642Z,3.50
2022-09-01T17:05:27.284Z,3.27
2022-09-01T17:08:07.717Z,3.63
2022-09-01T17:10:43.924Z,6.87
2022-09-01T17:13:20.391Z,6.23
2022-09-01T17:15:56.324Z,4.47
2022-09-01T17:18:34.470Z,4.13
2022-09-01T17:21:10.694Z,4.53
2022-09-01T17:23:46.223Z,6.27
2022-09-01T17:26:19.830Z,10.27
2022-09-01T17:28:55.255Z,4.07
2022-09-01T17:31:41.769Z,5.07
2022-09-01T17:34:25.991Z,3.50
2022-09-01T17:37:04.926Z,3.57
2022-09-01T17:39:43.691Z,3.57
2022-09-01T17:42:25.057Z,5.63
2022-09-01T17:44:56.551Z,6.73
2022-09-01T17:47:35.907Z,4.67
2022-09-01T17:50:13.336Z,5.13
2022-09-01T17:52:53.187Z,6.63
2022-09-01T17:55:40.529Z,5.77
2022-09-01T17:58:17.140Z,6.27
2022-09-01T18:00:53.384Z,4.67
2022-09-01T18:03:45.758Z,7.77
2022-09-01T18:06:24.228Z,3.60
2022-09-01T18:08:55.155Z,5.57
2022-09-01T18:11:30.774Z,4.93
2022-09-01T18:14:03.365Z,12.67
2022-09-01T18:16:36.396Z,5.73
2022-09-01T18:19:08.513Z,5.97
2022-09-01T18:21:40.467Z,5.60
2022-09-01T18:24:16.107Z,5.87
2022-09-01T18:26:48.817Z,4.53
2022-09-01T18:29:17.777Z,5.30
2022-09-01T18:32:00.580Z,3.30
2022-09-01T18:34:39.693Z,5.17
2022-09-01T18:37:17.188Z,4.37
2022-09-01T18:39:56.245Z,3.90
2022-09-01T18:42:32.746Z,4.93
2022-09-01T18:45:10.967Z,3.80
2022-09-01T18:47:49.132Z,4.87
2022-09-01T18:50:24.520Z,5.13
2022-09-01T18:53:15.300Z,3.80
2022-09-01T18:55:51.909Z,4.03
2022-09-01T18:58:36.278Z,5.27
2022-09-01T19:01:07.138Z,4.60
2022-09-01T19:03:42.528Z,4.20
2022-09-01T19:06:27.742Z,7.87
2022-09-01T19:09:08.542Z,4.50
2022-09-01T19:11:49.109Z,6.37
2022-09-01T19:14:30.055Z,5.27
2022-09-01T19:17:42.701Z,3.47
2022-09-01T19:20:15.834Z,3.30
2022-09-01T19:22:49.055Z,4.20
2022-09-01T19:25:36.871Z,3.70
2022-09-01T19:28:14.932Z,4.50
2022-09-01T19:30:48.303Z,5.10
2022-09-01T19:33:22.482Z,5.63
2022-09-01T19:35:55.057Z,4.03
2022-09-01T19:38:27.800Z,4.20
2022-09-01T19:41:02.545Z,5.70
2022-09-01T19:43:37.378Z,6.27
2022-09-01T19:46:18.828Z,4.03
2022-09-01T19:48:52.859Z,6.77
2022-09-01T19:51:25.583Z,5.03
2022-09-01T19:54:02.361Z,3.70
2022-09-01T19:56:36.354Z,5.03
2022-09-01T19:59:14.825Z,8.20
2022-09-01T20:01:49.048Z,7.53
2022-09-01T20:04:27.181Z,4.80
2022-09-01T20:06:59.596Z,6.90
2022-09-01T20:09:36.951Z,5.43
2022-09-01T20:12:16.190Z,5.23
2022-09-01T20:14:54.658Z,6.20
2022-09-01T20:17:30.551Z,5.57
2022-09-01T20:20:05.019Z,7.43
2022-09-01T20:22:40.495Z,4.97
2022-09-01T20:25:12.930Z,6.20
2022-09-01T20:27:51.719Z,4.20
2022-09-01T20:30:22.273Z,6.87
2022-09-01T20:32:59.410Z,6.13
2022-09-01T20:35:37.584Z,5.80
2022-09-01T20:38:33.485Z,9.30
2022-09-01T20:41:04.928Z,7.00
2022-09-01T20:43:38.995Z,5.13
2022-09-01T20:46:07.306Z,5.70
2022-09-01T20:48:40.625Z,5.87
2022-09-01T20:51:13.986Z,9.77
2022-09-01T20:54:02.505Z,6.37
2022-09-01T20:56:40.588Z,8.23
2022-09-01T20:59:18.496Z,9.10
2022-09-01T21:01:53.439Z,5.23
2022-09-01T21:04:38.994Z,5.27
2022-09-01T21:07:14.956Z,9.03
2022-09-01T21:09:52.477Z,6.97
2022-09-01T21:12:28.811Z,8.47
2022-09-01T21:15:09.500Z,4.83
2022-09-01T21:17:43.535Z,4.77
2022-09-01T21:20:23.219Z,5.93
2022-09-01T21:22:51.793Z,7.30
2022-09-01T21:25:19.856Z,14.17
2022-09-01T21:27:52.070Z,15.33
2022-09-01T21:30:21.659Z,9.60
2022-09-01T21:32:52.709Z,6.23
2022-09-01T21:35:23.173Z,5.13
2022-09-01T21:37:51.708Z,9.73
2022-09-01T21:40:22.118Z,6.17
2022-09-01T21:42:54.527Z,5.73
2022-09-01T21:45:23.241Z,6.50
2022-09-01T21:47:53.244Z,5.47
2022-09-01T21:50:24.799Z,5.20
2022-09-01T21:52:52.879Z,8.17
2022-09-01T21:55:23.039Z,10.27
2022-09-01T21:57:51.785Z,6.13
2022-09-01T22:00:23.116Z,7.00
2022-09-01T22:02:51.598Z,6.43
2022-09-01T22:05:19.619Z,9.87
2022-09-01T22:07:49.004Z,6.30
2022-09-01T22:10:21.675Z,7.50
2022-09-01T22:12:50.985Z,5.83
2022-09-01T22:15:21.777Z,9.23
2022-09-01T22:17:50.477Z,7.87
2022-09-01T22:20:22.286Z,6.17
2022-09-01T22:23:01.875Z,5.87
2022-09-01T22:25:31.394Z,7.20
2022-09-01T22:28:00.207Z,7.87
2022-09-01T22:30:28.221Z,7.60
2022-09-01T22:32:56.271Z,6.67
2022-09-01T22:35:24.283Z,5.63
2022-09-01T22:37:53.788Z,6.80
2022-09-01T22:40:21.830Z,5.67
2022-09-01T22:42:51.222Z,5.73
2022-09-01T22:45:19.387Z,13.57
2022-09-01T22:47:47.299Z,5.50
2022-09-01T22:50:15.305Z,5.77
2022-09-01T22:52:43.743Z,6.00
2022-09-01T22:55:13.664Z,5.50
2022-09-01T22:57:41.625Z,4.90
2022-09-01T23:00:11.028Z,7.27
2022-09-01T23:02:40.182Z,4.97
2022-09-01T23:05:09.396Z,5.07
2022-09-01T23:07:39.812Z,5.90
2022-09-01T23:10:10.372Z,10.00
2022-09-01T23:12:39.828Z,4.90
2022-09-01T23:15:09.519Z,7.43
2022-09-01T23:17:37.919Z,5.60
2022-09-01T23:20:08.835Z,6.63
2022-09-01T23:22:36.906Z,5.60
2022-09-01T23:25:05.279Z,10.23
2022-09-01T23:27:33.335Z,8.50
2022-09-01T23:30:02.811Z,5.37
2022-09-01T23:32:30.879Z,5.37
2022-09-01T23:34:59.774Z,7.10
2022-09-01T23:37:28.252Z,5.03
2022-09-01T23:39:57.459Z,6.50
2022-09-01T23:42:25.624Z,7.00
2022-09-01T23:44:53.566Z,8.17
2022-09-01T23:47:22.883Z,5.80
2022-09-01T23:49:50.930Z,8.83
2022-09-01T23:52:18.920Z,6.70
2022-09-01T23:54:46.855Z,4.87
2022-09-01T23:57:14.818Z,10.97
2022-09-01T23:59:42.827Z,6.87
